Time;durP1;ratioP1;P1;durP2;ratioP2;P2;SDS_P1;SDS_P2;PMS_P1;PMS_P2;Temp;Humidity;BMP_temperature;BMP_pressure;BME280_temperature;BME280_humidity;BME280_pressure;Samples;Min_cycle;Max_cycle;Signal;HPM_P1;HPM_P2
2020/12/05 00:01:07;;;;;;;15.50;14.18;;;;;;;6.52;59.97;99115.91;5066328;28;20040;-76
2020/12/05 00:03:33;;;;;;;16.80;15.40;;;;;;;6.52;60.17;99128.53;5066562;28;20040;-76
2020/12/05 00:05:58;;;;;;;19.30;17.75;;;;;;;6.64;59.82;99134.94;5061863;28;20583;-76
2020/12/05 00:08:24;;;;;;;17.48;15.82;;;;;;;6.61;59.91;99146.19;5067941;28;20032;-76
2020/12/05 00:10:49;;;;;;;26.63;24.40;;;;;;;6.68;59.45;99141.59;5065989;28;20028;-76
2020/12/05 00:13:15;;;;;;;22.55;20.50;;;;;;;6.65;59.85;99152.00;5067546;28;20136;-76
2020/12/05 00:15:40;;;;;;;16.75;15.13;;;;;;;6.71;59.57;99161.97;5066945;28;20119;-76
2020/12/05 00:18:06;;;;;;;19.60;18.17;;;;;;;6.75;59.18;99163.16;5066972;28;20040;-76
2020/12/05 00:20:32;;;;;;;16.25;14.82;;;;;;;6.79;59.24;99172.53;5066052;28;20062;-76
2020/12/05 00:22:57;;;;;;;19.85;18.23;;;;;;;6.75;59.16;99173.97;5066204;28;20111;-77
2020/12/05 00:25:22;;;;;;;17.08;15.38;;;;;;;6.73;59.36;99182.28;5066932;28;20044;-76
2020/12/05 00:27:48;;;;;;;16.95;15.63;;;;;;;6.66;59.82;99186.91;5064998;28;20043;-76
2020/12/05 00:30:13;;;;;;;15.93;14.55;;;;;;;6.78;59.25;99190.63;5066345;28;20025;-76
2020/12/05 00:32:39;;;;;;;12.73;11.57;;;;;;;6.72;58.89;99193.31;5065212;28;20028;-76
2020/12/05 00:35:05;;;;;;;18.73;17.08;;;;;;;6.71;59.02;99197.06;5065491;28;20064;-76
2020/12/05 00:37:31;;;;;;;19.23;17.38;;;;;;;6.62;59.92;99196.47;5079759;28;20068;-76
2020/12/05 00:39:56;;;;;;;21.75;19.92;;;;;;;6.60;59.72;99199.38;5066641;28;20122;-76
2020/12/05 00:42:22;;;;;;;22.35;20.20;;;;;;;6.59;60.29;99199.59;5064873;28;20032;-76
2020/12/05 00:44:47;;;;;;;18.20;16.23;;;;;;;6.68;59.79;99202.91;5067809;28;20051;-76
2020/12/05 00:47:13;;;;;;;12.85;9.80;;;;;;;6.57;59.74;99202.50;5063043;28;20072;-76
2020/12/05 00:49:38;;;;;;;13.93;10.50;;;;;;;6.55;60.25;99209.16;5067539;28;20036;-76
2020/12/05 00:52:03;;;;;;;11.32;10.32;;;;;;;6.52;59.99;99210.41;5066799;28;20563;-76
2020/12/05 00:54:29;;;;;;;15.30;13.80;;;;;;;6.52;59.94;99209.56;5064621;28;20025;-76
2020/12/05 00:56:54;;;;;;;18.38;16.80;;;;;;;6.48;59.86;99213.75;5064108;28;20494;-76
2020/12/05 00:59:20;;;;;;;22.80;20.67;;;;;;;6.50;60.26;99217.88;5068671;28;20040;-76
2020/12/05 01:01:45;;;;;;;19.25;17.75;;;;;;;6.49;59.98;99229.75;5063961;28;20028;-76
2020/12/05 01:04:10;;;;;;;19.67;18.05;;;;;;;6.39;60.13;99224.75;5063573;28;20090;-76
2020/12/05 01:06:36;;;;;;;18.60;16.88;;;;;;;6.41;60.31;99238.88;5064685;28;20082;-76
2020/12/05 01:09:03;;;;;;;17.38;15.30;;;;;;;6.38;59.97;99233.06;5066062;28;20033;-76
2020/12/05 01:11:28;;;;;;;19.38;17.58;;;;;;;6.36;60.08;99233.25;5064793;28;20037;-76
2020/12/05 01:13:54;;;;;;;15.52;14.25;;;;;;;6.28;60.25;99242.41;5063083;28;20039;-76
2020/12/05 01:16:20;;;;;;;18.98;17.20;;;;;;;6.22;60.44;99237.84;5067013;28;20032;-76
2020/12/05 01:18:46;;;;;;;15.60;14.48;;;;;;;6.15;60.31;99238.88;5063566;28;20658;-76
2020/12/05 01:21:13;;;;;;;17.38;15.85;;;;;;;6.12;60.47;99242.00;5068999;28;20656;-76
2020/12/05 01:23:39;;;;;;;15.35;13.88;;;;;;;6.09;60.77;99248.66;5068300;28;20120;-77
2020/12/05 01:26:05;;;;;;;13.07;11.80;;;;;;;6.05;60.36;99261.72;5069301;28;20024;-76
2020/12/05 01:28:32;;;;;;;12.35;11.10;;;;;;;6.00;60.63;99255.28;5067080;28;20033;-76
2020/12/05 01:30:57;;;;;;;15.18;13.82;;;;;;;6.01;61.26;99267.72;5066921;28;20047;-76
2020/12/05 01:33:23;;;;;;;12.05;10.77;;;;;;;5.97;61.76;99272.72;5066097;28;20407;-77
2020/12/05 01:35:48;;;;;;;14.60;13.55;;;;;;;5.96;61.59;99279.09;5083788;28;20044;-76
2020/12/05 01:38:14;;;;;;;16.17;14.77;;;;;;;6.04;61.40;99275.41;5068795;28;20027;-76
2020/12/05 01:40:39;;;;;;;14.70;13.13;;;;;;;5.96;61.46;99286.38;5066747;28;20060;-76
2020/12/05 01:43:04;;;;;;;14.60;13.15;;;;;;;5.95;61.48;99290.94;5066604;28;20070;-76
2020/12/05 01:45:30;;;;;;;15.70;13.90;;;;;;;5.98;61.71;99287.03;5065754;28;20383;-76
2020/12/05 01:47:55;;;;;;;18.92;16.55;;;;;;;5.93;61.60;99293.00;5065162;28;20037;-76
2020/12/05 01:50:21;;;;;;;14.80;13.07;;;;;;;5.97;62.02;99297.00;5064640;28;20033;-76
2020/12/05 01:52:47;;;;;;;15.75;11.88;;;;;;;6.03;62.06;99303.44;5067555;28;20029;-76
2020/12/05 01:55:13;;;;;;;16.70;15.30;;;;;;;6.11;61.72;99307.81;5068459;28;20028;-76
2020/12/05 01:57:38;;;;;;;13.63;10.65;;;;;;;6.06;61.65;99306.56;5065333;28;20043;-76
2020/12/05 02:00:05;;;;;;;14.30;12.48;;;;;;;6.08;61.67;99301.78;5065214;28;20514;-76
2020/12/05 02:02:30;;;;;;;12.32;11.38;;;;;;;6.10;61.43;99301.56;5065751;28;20033;-76
2020/12/05 02:05:09;;;;;;;15.68;14.35;;;;;;;6.07;61.39;99292.03;5067077;28;20398;-76
2020/12/05 02:07:47;;;;;;;15.00;13.60;;;;;;;6.09;61.87;99302.63;5065666;28;20024;-76
2020/12/05 02:10:20;;;;;;;20.88;19.17;;;;;;;6.11;61.90;99302.41;5068007;28;20051;-76
2020/12/05 02:13:00;;;;;;;18.42;16.58;;;;;;;6.11;61.62;99303.25;5065230;28;20036;-76
2020/12/05 02:15:28;;;;;;;17.63;15.95;;;;;;;6.12;61.61;99304.06;5067251;28;20035;-76
2020/12/05 02:18:03;;;;;;;15.52;14.10;;;;;;;6.09;62.14;99297.22;5067359;28;20086;-76
2020/12/05 02:20:31;;;;;;;17.90;16.25;;;;;;;6.11;61.97;99305.13;5064104;28;20039;-77
2020/12/05 02:23:11;;;;;;;14.18;12.90;;;;;;;6.05;61.57;99291.38;5067540;28;20085;-77
2020/12/05 02:25:39;;;;;;;14.30;12.95;;;;;;;6.07;61.51;99310.94;5066312;28;20029;-77
2020/12/05 02:28:06;;;;;;;11.90;10.73;;;;;;;6.01;61.52;99300.94;5067355;28;20028;-77
2020/12/05 02:30:33;;;;;;;13.63;12.52;;;;;;;5.93;61.71;99298.41;5067083;28;20596;-77
2020/12/05 02:33:00;;;;;;;16.83;15.63;;;;;;;5.87;61.40;99302.75;5068295;28;20089;-76
2020/12/05 02:35:25;;;;;;;17.20;15.85;;;;;;;5.83;61.54;99297.97;5067360;28;20395;-76
2020/12/05 02:37:57;;;;;;;15.15;13.82;;;;;;;5.73;61.58;99301.91;5068260;28;20071;-76
2020/12/05 02:40:22;;;;;;;19.02;17.35;;;;;;;5.66;61.75;99294.81;5067333;28;20057;-76
2020/12/05 02:42:48;;;;;;;20.33;18.73;;;;;;;5.64;61.71;99297.72;5067857;28;20074;-76
2020/12/05 02:45:13;;;;;;;14.73;13.40;;;;;;;5.62;61.80;99296.25;5066919;28;20035;-76
2020/12/05 02:47:39;;;;;;;15.43;14.32;;;;;;;5.56;61.56;99293.34;5062418;28;20036;-77
2020/12/05 02:50:05;;;;;;;12.38;11.18;;;;;;;5.50;61.67;99302.22;5067163;28;20447;-76
2020/12/05 02:52:30;;;;;;;10.65;9.57;;;;;;;5.47;61.33;99305.34;5065957;28;20052;-76
2020/12/05 02:54:56;;;;;;;16.45;15.32;;;;;;;5.38;61.46;99306.53;5068315;28;20028;-76
2020/12/05 02:57:21;;;;;;;14.05;13.05;;;;;;;5.24;61.58;99305.66;5068010;28;20086;-76
2020/12/05 02:59:46;;;;;;;14.32;12.65;;;;;;;5.17;61.82;99308.31;5066363;28;20486;-76
2020/12/05 03:02:12;;;;;;;18.63;17.13;;;;;;;5.11;61.81;99305.56;5065630;28;20020;-76
2020/12/05 03:04:37;;;;;;;17.75;16.38;;;;;;;5.10;61.96;99299.34;5064463;28;20104;-76
2020/12/05 03:07:05;;;;;;;15.02;13.63;;;;;;;5.27;62.54;99305.25;5064583;28;20475;-76
2020/12/05 03:09:34;;;;;;;14.98;13.68;;;;;;;5.24;62.21;99305.66;5064690;28;20051;-76
2020/12/05 03:11:59;;;;;;;14.10;13.02;;;;;;;5.23;62.68;99301.28;5066155;28;20036;-76
2020/12/05 03:14:24;;;;;;;14.55;13.13;;;;;;;5.29;62.69;99297.78;5067065;28;20032;-76
2020/12/05 03:16:50;;;;;;;12.88;11.85;;;;;;;5.26;62.17;99300.88;5064960;28;20036;-76
2020/12/05 03:19:15;;;;;;;16.63;15.38;;;;;;;5.23;62.26;99295.88;5065884;28;20123;-76
2020/12/05 03:21:41;;;;;;;18.38;16.88;;;;;;;5.19;62.20;99292.78;5069186;28;20446;-76
2020/12/05 03:24:06;;;;;;;20.42;19.13;;;;;;;5.14;62.01;99295.25;5064317;28;20037;-76
2020/12/05 03:26:32;;;;;;;20.02;18.48;;;;;;;5.04;62.07;99299.31;5066259;28;20086;-76
2020/12/05 03:28:58;;;;;;;25.67;23.95;;;;;;;5.02;61.82;99299.53;5066798;28;20043;-76
2020/12/05 03:31:39;;;;;;;21.02;19.60;;;;;;;5.02;61.97;99299.53;5066493;28;20029;-76
2020/12/05 03:34:05;;;;;;;17.33;15.35;;;;;;;4.98;61.86;99296.38;5071617;28;20034;-76
2020/12/05 03:36:31;;;;;;;20.05;18.65;;;;;;;4.94;61.84;99294.28;5065878;28;20513;-75
2020/12/05 03:38:56;;;;;;;22.60;21.10;;;;;;;4.93;61.94;99300.72;5064705;28;20029;-75
2020/12/05 03:41:23;;;;;;;17.05;15.88;;;;;;;4.85;61.75;99301.69;5066157;28;20056;-75
2020/12/05 03:43:49;;;;;;;26.38;24.63;;;;;;;4.79;61.86;99305.19;5061103;28;20367;-76
2020/12/05 03:46:14;;;;;;;20.42;18.92;;;;;;;4.75;62.24;99311.97;5067246;28;20036;-75
2020/12/05 03:48:40;;;;;;;19.80;18.38;;;;;;;4.76;62.12;99316.34;5065096;28;20059;-75
2020/12/05 03:51:05;;;;;;;20.05;18.38;;;;;;;4.72;62.03;99313.19;5066560;28;20025;-75
2020/12/05 03:53:31;;;;;;;17.20;16.00;;;;;;;4.68;61.96;99314.63;5064302;28;20032;-75
2020/12/05 03:55:56;;;;;;;19.08;17.77;;;;;;;4.62;62.01;99318.13;5064530;28;20029;-75
2020/12/05 03:58:22;;;;;;;17.23;16.00;;;;;;;4.57;62.17;99316.00;5062240;28;20036;-75
2020/12/05 04:00:47;;;;;;;15.70;14.40;;;;;;;4.58;62.10;99317.66;5065949;28;20476;-75
2020/12/05 04:03:13;;;;;;;18.25;16.45;;;;;;;4.56;61.80;99319.72;5066495;28;20025;-76
2020/12/05 04:05:38;;;;;;;16.15;14.82;;;;;;;4.52;61.77;99329.19;5062545;28;20075;-75
2020/12/05 04:08:04;;;;;;;21.25;19.73;;;;;;;4.47;61.95;99326.28;5078110;28;20040;-76
2020/12/05 04:10:29;;;;;;;24.10;22.25;;;;;;;4.45;62.29;99320.25;5064154;28;20293;-76
2020/12/05 04:12:55;;;;;;;21.88;20.38;;;;;;;4.47;62.51;99324.41;5066304;28;20670;-75
2020/12/05 04:15:20;;;;;;;14.57;13.45;;;;;;;4.51;62.68;99324.88;5063296;28;20036;-76
2020/12/05 04:17:45;;;;;;;20.92;19.58;;;;;;;4.53;63.11;99314.72;5066804;28;20032;-76
2020/12/05 04:20:11;;;;;;;18.35;16.85;;;;;;;4.50;62.47;99315.13;5062811;28;20499;-76
2020/12/05 04:22:36;;;;;;;28.48;26.33;;;;;;;4.53;62.50;99309.34;5070689;28;20043;-76
2020/12/05 04:25:02;;;;;;;23.40;21.58;;;;;;;4.53;62.76;99306.66;5068990;28;20048;-75
2020/12/05 04:27:27;;;;;;;26.17;24.05;;;;;;;4.59;63.02;99302.34;5071129;28;20055;-75
2020/12/05 04:29:53;;;;;;;25.52;23.38;;;;;;;4.59;63.17;99296.97;5067310;28;20047;-75
2020/12/05 04:32:18;;;;;;;23.25;21.45;;;;;;;4.60;62.92;99312.94;5067336;28;20446;-76
2020/12/05 04:34:43;;;;;;;20.13;18.17;;;;;;;4.58;63.42;99316.84;5065868;28;20040;-76
2020/12/05 04:37:09;;;;;;;28.90;26.23;;;;;;;4.56;63.42;99316.19;5069694;28;20028;-76
2020/12/05 04:39:34;;;;;;;18.73;17.08;;;;;;;4.58;63.20;99311.44;5066966;28;20036;-76
2020/12/05 04:42:00;;;;;;;21.50;19.88;;;;;;;4.57;63.02;99316.00;5068225;28;20044;-76
2020/12/05 04:44:27;;;;;;;20.25;18.58;;;;;;;4.61;63.14;99319.97;5067561;28;20028;-75
2020/12/05 04:46:54;;;;;;;35.58;32.92;;;;;;;4.63;63.32;99322.44;5067910;28;20482;-75
2020/12/05 04:49:23;;;;;;;26.73;24.70;;;;;;;4.65;63.29;99317.72;5066854;28;20039;-75
2020/12/05 04:51:56;;;;;;;35.15;32.65;;;;;;;4.66;63.26;99324.75;5070439;28;20036;-75
2020/12/05 04:54:26;;;;;;;27.60;25.42;;;;;;;4.64;63.12;99319.56;5069248;28;20519;-75
2020/12/05 04:56:55;;;;;;;22.23;20.40;;;;;;;4.54;63.05;99324.47;5067590;28;20039;-76
2020/12/05 04:59:20;;;;;;;33.92;31.65;;;;;;;4.46;63.16;99328.13;5066805;28;20513;-75
2020/12/05 05:01:50;;;;;;;38.60;35.80;;;;;;;4.44;63.07;99338.25;5051114;28;20111;-76
2020/12/05 05:04:15;;;;;;;29.98;27.88;;;;;;;4.40;63.02;99341.53;5068688;28;20128;-75
2020/12/05 05:06:41;;;;;;;20.23;18.65;;;;;;;4.33;62.67;99340.66;5068320;28;20029;-75
2020/12/05 05:09:06;;;;;;;20.75;19.02;;;;;;;4.24;63.12;99348.81;5067321;28;20044;-75
2020/12/05 05:11:34;;;;;;;22.50;20.50;;;;;;;4.26;63.17;99354.03;5070391;28;20086;-75
2020/12/05 05:14:03;;;;;;;31.10;28.60;;;;;;;4.24;63.05;99358.78;5070363;28;20498;-75
2020/12/05 05:16:29;;;;;;;24.23;22.48;;;;;;;4.18;63.07;99365.75;5065531;28;20041;-75
2020/12/05 05:18:56;;;;;;;29.77;27.33;;;;;;;4.20;63.28;99371.78;5063271;28;20487;-75
2020/12/05 05:21:35;;;;;;;34.10;31.80;;;;;;;4.20;63.18;99376.31;5065987;28;20040;-75
2020/12/05 05:24:14;;;;;;;26.10;24.17;;;;;;;4.14;63.08;99391.38;5066363;28;20514;-75
2020/12/05 05:26:40;;;;;;;33.85;31.65;;;;;;;4.12;63.43;99388.03;5061825;28;20108;-75
2020/12/05 05:29:22;;;;;;;26.35;24.20;;;;;;;4.09;63.13;99391.94;5069124;28;20405;-75
2020/12/05 05:31:51;;;;;;;25.48;23.58;;;;;;;4.06;63.31;99394.16;5066393;28;20055;-75
2020/12/05 05:34:21;;;;;;;28.95;26.73;;;;;;;4.08;63.16;99398.34;5067541;28;20032;-75
2020/12/05 05:36:47;;;;;;;36.15;33.42;;;;;;;4.08;63.18;99402.91;5067648;28;20033;-75
2020/12/05 05:39:14;;;;;;;30.77;28.38;;;;;;;4.07;63.58;99410.13;5068755;28;20024;-75
2020/12/05 05:41:44;;;;;;;24.45;22.65;;;;;;;4.11;63.04;99411.41;5066640;28;20055;-75
2020/12/05 05:44:12;;;;;;;42.47;39.47;;;;;;;4.07;63.16;99399.34;5068269;28;20112;-75
2020/12/05 05:46:42;;;;;;;27.77;25.77;;;;;;;4.12;63.21;99405.03;5068717;28;20499;-75
2020/12/05 05:49:08;;;;;;;27.27;24.92;;;;;;;4.10;63.25;99417.81;5067220;28;20394;-75
2020/12/05 05:51:45;;;;;;;23.20;21.48;;;;;;;4.12;62.91;99415.78;5068207;28;20039;-75
2020/12/05 05:54:16;;;;;;;20.70;19.10;;;;;;;4.07;62.89;99422.75;5067070;28;20067;-75
2020/12/05 05:56:57;;;;;;;30.83;28.60;;;;;;;4.01;63.10;99427.00;5066916;28;20029;-75
2020/12/05 05:59:24;;;;;;;31.20;29.00;;;;;;;4.01;63.25;99415.44;5068710;28;20028;-75
2020/12/05 06:01:54;;;;;;;29.58;27.38;;;;;;;3.96;63.13;99421.38;5065268;28;20052;-75
2020/12/05 06:04:29;;;;;;;37.07;34.03;;;;;;;4.01;63.81;99426.19;5067053;28;20043;-75
2020/12/05 06:06:57;;;;;;;28.80;26.23;;;;;;;4.02;63.56;99431.38;5059886;28;20028;-75
2020/12/05 06:09:28;;;;;;;25.48;23.50;;;;;;;4.11;63.91;99429.44;5069198;28;20035;-75
2020/12/05 06:11:57;;;;;;;32.28;29.98;;;;;;;4.17;63.51;99420.59;5067292;28;20056;-75
2020/12/05 06:14:23;;;;;;;32.97;30.83;;;;;;;4.17;63.93;99417.91;5067880;28;20024;-75
2020/12/05 06:16:54;;;;;;;39.30;36.50;;;;;;;4.21;63.72;99419.16;5067501;28;20386;-75
2020/12/05 06:19:21;;;;;;;24.65;22.95;;;;;;;4.24;63.78;99418.78;5067656;28;20037;-75
2020/12/05 06:22:04;;;;;;;31.13;28.75;;;;;;;4.22;63.92;99426.22;5065934;28;20052;-75
2020/12/05 06:24:39;;;;;;;34.78;32.38;;;;;;;4.21;63.67;99424.56;5066243;28;20199;-75
2020/12/05 06:27:06;;;;;;;26.02;24.13;;;;;;;4.21;63.67;99435.31;5066803;28;20024;-75
2020/12/05 06:29:32;;;;;;;28.60;26.67;;;;;;;4.21;63.74;99438.00;5067509;28;20679;-75
2020/12/05 06:31:58;;;;;;;26.65;24.70;;;;;;;4.16;63.68;99427.00;5067190;28;20020;-75
2020/12/05 06:34:39;;;;;;;35.60;33.13;;;;;;;4.23;63.75;99432.44;5065979;28;20102;-75
2020/12/05 06:37:05;;;;;;;;;;;;;;;4.20;63.36;99436.34;5067192;28;20032;-75
2020/12/05 06:39:30;;;;;;;26.25;24.35;;;;;;;4.21;63.91;99437.19;5066952;28;19924;-75
2020/12/05 06:41:55;;;;;;;28.17;26.23;;;;;;;4.18;64.02;99441.06;5067950;28;20045;-75
2020/12/05 06:44:35;;;;;;;32.58;30.27;;;;;;;4.15;63.80;99436.06;5064532;28;20047;-75
2020/12/05 06:47:21;;;;;;;36.60;33.90;;;;;;;4.19;64.01;99442.75;5062901;28;20029;-75
2020/12/05 06:49:48;;;;;;;26.20;24.35;;;;;;;4.23;63.99;99427.06;5064809;28;20033;-75
2020/12/05 06:52:26;;;;;;;21.35;19.83;;;;;;;4.26;63.94;99430.22;5050275;28;20510;-74
2020/12/05 06:54:53;;;;;;;23.60;22.00;;;;;;;4.25;63.82;99431.22;5060667;28;20108;-74
2020/12/05 06:57:20;;;;;;;22.20;20.40;;;;;;;4.25;64.23;99435.78;5067007;28;20035;-74
2020/12/05 06:59:46;;;;;;;29.00;26.67;;;;;;;4.26;64.12;99427.53;5064937;28;20078;-75
2020/12/05 07:02:31;;;;;;;27.65;25.40;;;;;;;4.33;64.28;99434.84;5065346;28;20024;-75
2020/12/05 07:05:18;;;;;;;22.77;21.15;;;;;;;4.43;64.42;99429.94;5063674;28;20567;-74
2020/12/05 07:07:56;;;;;;;33.85;31.15;;;;;;;4.50;64.44;99443.50;5066825;28;20063;-74
2020/12/05 07:10:44;;;;;;;31.02;28.50;;;;;;;4.54;64.26;99445.63;5066510;28;20055;-75
2020/12/05 07:13:17;;;;;;;25.35;23.35;;;;;;;4.59;64.16;99455.81;5066888;28;20692;-74
2020/12/05 07:15:43;;;;;;;21.20;19.67;;;;;;;4.63;64.23;99460.63;5061285;28;20042;-75
2020/12/05 07:18:10;;;;;;;27.63;25.20;;;;;;;4.60;64.83;99466.38;5066160;28;20028;-75
2020/12/05 07:20:36;;;;;;;36.28;33.72;;;;;;;4.65;64.31;99452.34;5063806;28;20111;-75
2020/12/05 07:23:01;;;;;;;40.40;37.42;;;;;;;4.69;64.10;99458.19;5064457;28;20078;-74
2020/12/05 07:25:26;;;;;;;45.67;42.55;;;;;;;4.63;64.13;99467.84;5065163;28;20047;-74
2020/12/05 07:27:54;;;;;;;57.30;53.58;;;;;;;4.65;63.95;99479.28;5064539;28;20032;-75
2020/12/05 07:30:19;;;;;;;27.73;25.52;;;;;;;4.70;64.21;99487.59;5066371;28;20047;-75
2020/12/05 07:32:45;;;;;;;29.70;27.50;;;;;;;4.70;64.39;99490.28;5065926;28;20032;-74
2020/12/05 07:35:13;;;;;;;25.58;23.60;;;;;;;4.73;64.29;99491.78;5061547;28;20035;-75
2020/12/05 07:37:39;;;;;;;26.85;24.75;;;;;;;4.76;64.22;99500.31;5065501;28;20629;-74
2020/12/05 07:40:06;;;;;;;26.08;24.08;;;;;;;4.78;64.46;99497.41;5064027;28;20055;-75
2020/12/05 07:42:42;;;;;;;23.70;21.70;;;;;;;4.80;64.18;99498.06;5065211;28;20033;-74
2020/12/05 07:45:09;;;;;;;28.40;25.73;;;;;;;4.84;65.16;99510.94;5065920;28;20029;-75
2020/12/05 07:47:35;;;;;;;41.63;38.53;;;;;;;4.98;64.88;99506.50;5067162;28;20035;-75
2020/12/05 07:50:01;;;;;;;29.33;27.00;;;;;;;5.14;65.24;99505.44;5065315;28;20481;-74
2020/12/05 07:52:27;;;;;;;31.45;26.75;;;;;;;5.17;65.46;99499.66;5065994;28;20050;-75
2020/12/05 07:54:57;;;;;;;25.38;23.30;;;;;;;5.29;65.21;99513.41;5067191;28;20025;-75
2020/12/05 07:57:27;;;;;;;26.60;24.30;;;;;;;5.36;65.38;99522.41;5066439;28;21305;-75
2020/12/05 08:00:20;;;;;;;44.20;40.65;;;;;;;5.44;65.25;99520.56;5068548;28;20040;-75
2020/12/05 08:03:13;;;;;;;31.83;29.27;;;;;;;5.53;64.93;99531.03;5066812;28;20713;-75
2020/12/05 08:05:57;;;;;;;38.58;35.75;;;;;;;5.60;64.62;99541.03;5066829;28;20036;-75
2020/12/05 08:08:27;;;;;;;29.90;27.60;;;;;;;5.59;64.53;99534.78;5085267;28;20064;-75
2020/12/05 08:10:59;;;;;;;25.35;23.08;;;;;;;5.60;64.67;99541.84;5069864;28;20034;-75
2020/12/05 08:13:27;;;;;;;21.55;19.60;;;;;;;5.66;64.61;99540.25;5068649;28;20141;-74
2020/12/05 08:16:04;;;;;;;24.85;22.52;;;;;;;5.73;64.43;99555.44;5065558;28;20024;-75
2020/12/05 08:18:32;;;;;;;22.17;20.08;;;;;;;5.78;64.44;99570.19;5068273;28;20028;-75
2020/12/05 08:21:00;;;;;;;23.58;21.08;;;;;;;5.76;64.47;99570.38;5065951;28;20123;-75
2020/12/05 08:23:37;;;;;;;28.38;25.80;;;;;;;5.84;64.06;99577.50;5067867;28;20150;-75
2020/12/05 08:26:08;;;;;;;22.27;20.13;;;;;;;5.89;63.78;99585.84;5066698;28;20115;-75
2020/12/05 08:28:42;;;;;;;22.70;20.98;;;;;;;5.91;63.80;99598.09;5067147;28;20048;-75
2020/12/05 08:31:12;;;;;;;24.27;21.83;;;;;;;6.02;64.10;99587.81;5068193;28;20060;-76
2020/12/05 08:33:45;;;;;;;22.90;21.07;;;;;;;6.57;64.05;99596.84;5066537;28;20112;-75
2020/12/05 08:36:19;;;;;;;27.65;25.10;;;;;;;7.60;63.37;99594.97;5064720;28;20521;-75
2020/12/05 08:38:45;;;;;;;23.48;21.45;;;;;;;8.41;60.91;99602.78;5065077;28;20032;-75
2020/12/05 08:41:10;;;;;;;22.08;19.70;;;;;;;8.87;59.26;99614.53;5068901;28;20064;-76
2020/12/05 08:43:36;;;;;;;21.83;19.75;;;;;;;9.70;56.80;99609.22;5068044;28;20391;-76
2020/12/05 08:46:14;;;;;;;21.60;19.63;;;;;;;10.83;52.41;99618.09;5068176;28;20025;-76
2020/12/05 08:48:41;;;;;;;18.98;17.10;;;;;;;11.40;49.33;99615.88;5067336;28;20077;-76
2020/12/05 08:51:06;;;;;;;15.38;14.00;;;;;;;11.76;47.94;99641.28;5067839;28;20036;-76
2020/12/05 08:53:32;;;;;;;16.05;14.65;;;;;;;12.29;48.07;99619.66;5067253;28;20465;-76
2020/12/05 08:55:57;;;;;;;16.30;14.82;;;;;;;11.74;47.65;99635.25;5066859;28;20037;-76
2020/12/05 08:58:23;;;;;;;15.40;14.10;;;;;;;10.88;48.79;99629.16;5063974;28;20036;-76
2020/12/05 09:00:51;;;;;;;11.98;10.95;;;;;;;10.04;50.95;99627.72;5066359;28;20033;-76
2020/12/05 09:03:21;;;;;;;14.25;12.90;;;;;;;9.76;52.97;99628.19;5067810;28;20044;-76
2020/12/05 09:05:48;;;;;;;10.45;9.55;;;;;;;9.60;53.92;99632.25;5069532;28;20482;-76
2020/12/05 09:08:22;;;;;;;17.88;16.15;;;;;;;9.37;54.51;99635.53;5067795;28;20017;-76
2020/12/05 09:10:48;;;;;;;17.98;16.58;;;;;;;9.28;55.00;99628.69;5065382;28;20402;-76
2020/12/05 09:13:14;;;;;;;16.90;15.60;;;;;;;9.31;55.46;99634.53;5066801;28;20029;-76
2020/12/05 09:16:01;;;;;;;15.05;13.80;;;;;;;9.36;55.94;99639.31;5066416;28;20024;-76
2020/12/05 09:18:38;;;;;;;21.17;19.25;;;;;;;9.38;55.37;99639.91;5064581;28;20074;-76
2020/12/05 09:21:10;;;;;;;13.10;12.00;;;;;;;9.49;55.67;99636.50;5065850;28;20036;-76
2020/12/05 09:23:35;;;;;;;18.70;17.00;;;;;;;9.68;54.84;99639.28;5067406;28;20034;-76
2020/12/05 09:26:03;;;;;;;16.80;15.25;;;;;;;9.57;54.65;99643.53;5067110;28;20024;-76
2020/12/05 09:28:29;;;;;;;20.38;18.70;;;;;;;9.71;54.98;99648.88;5066443;28;20044;-76
2020/12/05 09:30:55;;;;;;;22.00;19.95;;;;;;;9.56;54.52;99641.91;5067008;28;20020;-76
2020/12/05 09:33:20;;;;;;;21.33;19.52;;;;;;;9.50;55.12;99637.34;5068255;28;20048;-76
2020/12/05 09:35:47;;;;;;;15.30;13.90;;;;;;;9.44;55.22;99638.22;5066380;28;20016;-76
2020/12/05 09:38:13;;;;;;;22.92;20.73;;;;;;;9.40;55.65;99648.66;5067721;28;20043;-76
2020/12/05 09:40:38;;;;;;;17.98;16.30;;;;;;;10.04;56.33;99654.88;5065112;28;20044;-76
2020/12/05 09:43:03;;;;;;;18.00;16.30;;;;;;;11.62;53.46;99661.63;5047774;28;20037;-76
2020/12/05 09:45:29;;;;;;;15.45;12.43;;;;;;;12.87;49.33;99665.13;5063140;28;20044;-76
2020/12/05 09:47:55;;;;;;;15.98;14.38;;;;;;;13.24;46.77;99662.03;5067548;28;20728;-76
2020/12/05 09:50:21;;;;;;;13.65;11.27;;;;;;;13.13;46.52;99662.94;5066556;28;20040;-76
2020/12/05 09:52:47;;;;;;;13.55;12.45;;;;;;;12.70;46.73;99659.59;5066357;28;20040;-76
2020/12/05 09:55:13;;;;;;;12.07;10.98;;;;;;;12.43;48.30;99661.16;5064855;28;20128;-76
2020/12/05 09:57:39;;;;;;;12.15;11.05;;;;;;;12.36;48.46;99664.00;5066045;28;20029;-76
2020/12/05 10:00:07;;;;;;;11.75;10.65;;;;;;;12.54;47.29;99665.75;5061926;28;20047;-76
2020/12/05 10:02:33;;;;;;;13.52;11.32;;;;;;;12.90;46.59;99663.81;5066205;28;20390;-76
2020/12/05 10:04:58;;;;;;;13.60;12.20;;;;;;;13.02;45.69;99663.78;5066261;28;20029;-76
2020/12/05 10:07:23;;;;;;;11.05;10.05;;;;;;;13.03;46.75;99673.63;5068156;28;20036;-76
2020/12/05 10:09:49;;;;;;;12.13;11.02;;;;;;;13.17;46.95;99668.72;5066547;28;20043;-77
2020/12/05 10:12:14;;;;;;;12.63;11.32;;;;;;;13.05;45.82;99675.06;5065066;28;20028;-76
2020/12/05 10:14:40;;;;;;;9.32;7.97;;;;;;;13.43;45.08;99667.34;5066753;28;20410;-77
2020/12/05 10:17:05;;;;;;;8.88;7.63;;;;;;;13.59;44.94;99666.56;5066037;28;20131;-77
2020/12/05 10:19:31;;;;;;;10.85;9.52;;;;;;;13.93;44.38;99663.88;5065697;28;20033;-76
2020/12/05 10:21:56;;;;;;;9.02;8.13;;;;;;;13.58;44.39;99662.16;5066793;28;20550;-76
2020/12/05 10:24:22;;;;;;;9.45;7.00;;;;;;;13.42;45.33;99665.69;5068067;28;20424;-76
2020/12/05 10:26:48;;;;;;;12.55;7.82;;;;;;;13.16;45.92;99675.25;5063598;28;20029;-76
2020/12/05 10:29:14;;;;;;;10.00;9.00;;;;;;;12.63;47.23;99672.50;5068597;28;20032;-76
2020/12/05 10:31:46;;;;;;;10.32;9.32;;;;;;;12.36;47.19;99677.66;5065630;28;20055;-77
2020/12/05 10:34:12;;;;;;;10.65;9.02;;;;;;;12.23;48.22;99672.41;5064700;28;20043;-77
2020/12/05 10:36:38;;;;;;;12.65;9.40;;;;;;;11.96;48.59;99683.78;5065906;28;20033;-77
2020/12/05 10:39:08;;;;;;;11.30;10.05;;;;;;;11.97;48.92;99674.50;5064869;28;20090;-77
2020/12/05 10:41:36;;;;;;;13.80;12.60;;;;;;;11.81;49.18;99668.66;5066163;28;20149;-77
2020/12/05 10:44:02;;;;;;;12.10;10.20;;;;;;;11.53;49.92;99674.75;5064980;28;20033;-76
2020/12/05 10:46:27;;;;;;;11.32;10.25;;;;;;;11.85;50.50;99679.06;5065981;28;20083;-76
2020/12/05 10:48:52;;;;;;;14.25;12.93;;;;;;;12.19;49.73;99674.78;5064051;28;20036;-76
2020/12/05 10:51:18;;;;;;;12.80;11.43;;;;;;;12.33;48.87;99678.13;5063943;28;20119;-77
2020/12/05 10:53:43;;;;;;;14.25;11.10;;;;;;;12.17;48.57;99675.03;5066154;28;20025;-76
2020/12/05 10:56:09;;;;;;;12.13;9.77;;;;;;;12.58;48.07;99671.59;5064477;28;20573;-76
2020/12/05 10:58:34;;;;;;;12.48;11.20;;;;;;;12.56;46.91;99670.97;5062248;28;20105;-77
2020/12/05 11:00:59;;;;;;;11.80;10.73;;;;;;;12.83;47.40;99680.31;5066407;28;20039;-76
2020/12/05 11:03:25;;;;;;;10.75;9.75;;;;;;;12.76;47.33;99676.06;5064705;28;20036;-76
2020/12/05 11:05:50;;;;;;;11.48;10.30;;;;;;;12.67;47.76;99681.06;5065114;28;20039;-76
2020/12/05 11:08:16;;;;;;;13.13;10.80;;;;;;;12.44;47.83;99682.72;5066223;28;20032;-76
2020/12/05 11:10:41;;;;;;;9.57;8.68;;;;;;;12.01;48.63;99692.06;5066104;28;20024;-76
2020/12/05 11:13:06;;;;;;;8.88;8.15;;;;;;;12.07;49.41;99691.13;5065315;28;20036;-76
2020/12/05 11:15:32;;;;;;;10.02;9.02;;;;;;;11.65;49.99;99699.28;5064076;28;20029;-77
2020/12/05 11:17:57;;;;;;;10.85;9.85;;;;;;;11.58;50.28;99693.91;5065820;28;20040;-77
2020/12/05 11:20:23;;;;;;;13.48;11.18;;;;;;;11.88;49.21;99697.69;5065772;28;20041;-77
2020/12/05 11:22:49;;;;;;;10.48;9.30;;;;;;;12.32;48.83;99706.44;5063060;28;20074;-77
2020/12/05 11:25:14;;;;;;;11.02;9.57;;;;;;;12.34;48.43;99699.69;5065186;28;20042;-77
2020/12/05 11:27:40;;;;;;;12.93;11.75;;;;;;;12.66;47.74;99710.22;5061572;28;20479;-77